createdAt,value
2022-12-02T00:00:05.574Z,20.5
2022-12-02T00:01:07.379Z,20.5
2022-12-02T00:02:09.086Z,20.5
2022-12-02T00:03:11.071Z,20.5
2022-12-02T00:04:13.478Z,20.5
2022-12-02T00:05:15.699Z,20.5
2022-12-02T00:06:17.446Z,20.4
2022-12-02T00:07:19.271Z,20.5
2022-12-02T00:08:21.138Z,20.5
2022-12-02T00:09:23.117Z,20.5
2022-12-02T00:10:24.947Z,20.5
2022-12-02T00:11:26.799Z,20.5
2022-12-02T00:12:28.546Z,20.5
2022-12-02T00:13:30.326Z,20.5
2022-12-02T00:14:32.139Z,20.5
2022-12-02T00:15:36.559Z,20.5
2022-12-02T00:16:38.560Z,20.5
2022-12-02T00:17:40.769Z,20.5
2022-12-02T00:18:42.500Z,20.5
2022-12-02T00:19:44.228Z,20.5
2022-12-02T00:20:46.104Z,20.5
2022-12-02T00:21:47.871Z,20.5
2022-12-02T00:22:49.621Z,20.5
2022-12-02T00:23:51.449Z,20.5
2022-12-02T00:24:54.034Z,20.5
2022-12-02T00:25:56.353Z,20.6
2022-12-02T00:26:58.126Z,20.5
2022-12-02T00:27:59.880Z,20.5
2022-12-02T00:29:01.629Z,20.5
2022-12-02T00:30:03.373Z,20.5
2022-12-02T00:31:05.232Z,20.5
2022-12-02T00:32:10.288Z,20.5
2022-12-02T00:33:12.198Z,20.5
2022-12-02T00:34:14.052Z,20.5
2022-12-02T00:35:15.795Z,20.5
2022-12-02T00:36:17.548Z,20.5
2022-12-02T00:37:19.398Z,20.5
2022-12-02T00:38:21.038Z,20.5
2022-12-02T00:39:22.797Z,20.5
2022-12-02T00:40:24.522Z,20.5
2022-12-02T00:41:26.380Z,20.5
2022-12-02T00:42:28.128Z,20.5
2022-12-02T00:43:29.771Z,20.5
2022-12-02T00:44:31.419Z,20.5
2022-12-02T00:45:33.174Z,20.5
2022-12-02T00:46:35.471Z,20.5
2022-12-02T00:47:37.496Z,20.5
2022-12-02T00:48:39.177Z,20.5
2022-12-02T00:49:40.889Z,20.4
2022-12-02T00:50:42.629Z,20.5
2022-12-02T00:51:44.488Z,20.5
2022-12-02T00:52:46.323Z,20.5
2022-12-02T00:53:47.941Z,20.4
2022-12-02T00:54:50.222Z,20.5
2022-12-02T00:55:52.973Z,20.5
2022-12-02T00:56:54.863Z,20.5
2022-12-02T00:57:56.597Z,20.5
2022-12-02T00:58:58.340Z,20.5
2022-12-02T01:00:00.209Z,20.5
2022-12-02T01:01:02.063Z,20.5
2022-12-02T01:02:04.176Z,20.4
2022-12-02T01:03:05.997Z,20.5
2022-12-02T01:04:07.700Z,20.5
2022-12-02T01:05:09.552Z,20.5
2022-12-02T01:06:11.403Z,20.5
2022-12-02T01:07:13.157Z,20.4
2022-12-02T01:08:15.254Z,20.5
2022-12-02T01:09:17.147Z,20.5
2022-12-02T01:10:18.868Z,20.5
2022-12-02T01:11:20.645Z,20.5
2022-12-02T01:12:22.607Z,20.5
2022-12-02T01:13:24.395Z,20.5
2022-12-02T01:14:26.065Z,20.5
2022-12-02T01:15:28.149Z,20.5
2022-12-02T01:16:29.922Z,20.4
2022-12-02T01:17:31.897Z,20.5
2022-12-02T01:18:33.645Z,20.4
2022-12-02T01:19:35.452Z,20.4
2022-12-02T01:20:37.269Z,20.5
2022-12-02T01:21:38.953Z,20.5
2022-12-02T01:22:40.773Z,20.4
2022-12-02T01:23:42.741Z,20.5
2022-12-02T01:24:44.466Z,20.4
2022-12-02T01:25:46.461Z,20.4
2022-12-02T01:26:48.275Z,20.4
2022-12-02T01:27:50.159Z,20.4
2022-12-02T01:28:51.999Z,20.4
2022-12-02T01:29:53.852Z,20.4
2022-12-02T01:30:55.701Z,20.4
2022-12-02T01:31:57.834Z,20.4
2022-12-02T01:32:59.753Z,20.4
2022-12-02T01:34:01.418Z,20.4
2022-12-02T01:35:03.068Z,20.5
2022-12-02T01:36:04.849Z,20.4
2022-12-02T01:37:06.702Z,20.5
2022-12-02T01:38:08.451Z,20.5
2022-12-02T01:39:10.393Z,20.5
2022-12-02T01:40:12.247Z,20.4
2022-12-02T01:41:14.063Z,20.4
2022-12-02T01:42:15.914Z,20.4
2022-12-02T01:43:17.788Z,20.4
2022-12-02T01:44:19.449Z,20.4
2022-12-02T01:45:21.190Z,20.4
2022-12-02T01:46:23.499Z,20.5
2022-12-02T01:47:25.449Z,20.5
2022-12-02T01:48:27.249Z,20.4
2022-12-02T01:49:28.993Z,20.5
2022-12-02T01:50:30.682Z,20.5
2022-12-02T01:51:32.284Z,20.4
2022-12-02T01:52:34.003Z,20.5
2022-12-02T01:53:35.880Z,20.4
2022-12-02T01:54:37.833Z,20.4
2022-12-02T01:55:39.680Z,20.4
2022-12-02T01:56:41.326Z,20.5
2022-12-02T01:57:42.999Z,20.4
2022-12-02T01:58:45.043Z,20.4
2022-12-02T01:59:46.994Z,20.4
2022-12-02T02:00:48.854Z,20.4
2022-12-02T02:01:50.750Z,20.4
2022-12-02T02:02:52.559Z,20.4
2022-12-02T02:03:54.382Z,20.4
2022-12-02T02:04:56.139Z,20.4
2022-12-02T02:05:57.781Z,20.4
2022-12-02T02:06:59.530Z,20.4
2022-12-02T02:08:01.435Z,20.4
2022-12-02T02:09:03.427Z,20.4
2022-12-02T02:10:05.375Z,20.4
2022-12-02T02:11:07.237Z,20.4
2022-12-02T02:12:09.075Z,20.4
2022-12-02T02:13:13.725Z,20.4
2022-12-02T02:14:15.559Z,20.4
2022-12-02T02:15:17.519Z,20.4
2022-12-02T02:16:19.480Z,20.4
2022-12-02T02:17:21.574Z,20.4
2022-12-02T02:18:23.358Z,20.4
2022-12-02T02:19:25.103Z,20.4
2022-12-02T02:20:26.953Z,20.4
2022-12-02T02:21:28.801Z,20.4
2022-12-02T02:22:30.564Z,20.4
2022-12-02T02:23:32.298Z,20.4
2022-12-02T02:24:33.953Z,20.4
2022-12-02T02:25:35.790Z,20.4
2022-12-02T02:26:37.725Z,20.4
2022-12-02T02:27:39.594Z,20.4
2022-12-02T02:28:41.309Z,20.4
2022-12-02T02:29:43.202Z,20.4
2022-12-02T02:30:45.326Z,20.4
2022-12-02T02:31:47.298Z,20.4
2022-12-02T02:32:49.057Z,20.4
2022-12-02T02:33:50.698Z,20.4
2022-12-02T02:34:53.331Z,20.4
2022-12-02T02:35:55.606Z,20.4
2022-12-02T02:36:57.685Z,20.4
2022-12-02T02:37:59.540Z,20.4
2022-12-02T02:39:01.289Z,20.4
2022-12-02T02:40:03.024Z,20.4
2022-12-02T02:41:04.988Z,20.4
2022-12-02T02:42:06.741Z,20.4
2022-12-02T02:43:08.647Z,20.4
2022-12-02T02:44:10.452Z,20.3
2022-12-02T02:45:12.286Z,20.3
2022-12-02T02:46:14.058Z,20.3
2022-12-02T02:47:16.078Z,20.4
2022-12-02T02:48:17.802Z,20.4
2022-12-02T02:49:19.756Z,20.4
2022-12-02T02:50:21.532Z,20.4
2022-12-02T02:51:23.302Z,20.4
2022-12-02T02:52:25.140Z,20.4
2022-12-02T02:53:27.092Z,20.4
2022-12-02T02:54:28.979Z,20.4
2022-12-02T02:55:30.638Z,20.4
2022-12-02T02:56:32.551Z,20.4
2022-12-02T02:57:34.800Z,20.4
2022-12-02T02:58:36.739Z,20.4
2022-12-02T02:59:38.500Z,20.4
2022-12-02T03:00:40.228Z,20.4
2022-12-02T03:01:42.073Z,20.3
2022-12-02T03:02:44.543Z,20.4
2022-12-02T03:03:46.600Z,20.4
2022-12-02T03:04:48.873Z,20.4
2022-12-02T03:05:51.808Z,20.4
2022-12-02T03:06:53.695Z,20.4
2022-12-02T03:07:55.573Z,20.4
2022-12-02T03:08:57.644Z,20.4
2022-12-02T03:09:59.310Z,20.4
2022-12-02T03:11:01.090Z,20.4
2022-12-02T03:12:02.931Z,20.4
2022-12-02T03:13:04.576Z,20.4
2022-12-02T03:14:06.442Z,20.4
2022-12-02T03:15:08.308Z,20.4
2022-12-02T03:16:10.138Z,20.4
2022-12-02T03:17:12.160Z,20.4
2022-12-02T03:18:14.141Z,20.4
2022-12-02T03:19:15.989Z,20.4
2022-12-02T03:20:17.717Z,20.4
2022-12-02T03:21:19.476Z,20.4
2022-12-02T03:22:21.243Z,20.4
2022-12-02T03:23:22.971Z,20.4
2022-12-02T03:24:24.629Z,20.4
2022-12-02T03:25:26.471Z,20.4
2022-12-02T03:26:28.323Z,20.4
2022-12-02T03:27:30.094Z,20.4
2022-12-02T03:28:31.930Z,20.4
2022-12-02T03:29:33.674Z,20.4
2022-12-02T03:30:35.556Z,20.4
2022-12-02T03:31:37.586Z,20.5
2022-12-02T03:32:39.317Z,20.4
2022-12-02T03:33:41.066Z,20.4
2022-12-02T03:34:42.816Z,20.4
2022-12-02T03:35:44.465Z,20.4
2022-12-02T03:36:46.218Z,20.4
2022-12-02T03:37:47.957Z,20.4
2022-12-02T03:38:49.709Z,20.4
2022-12-02T03:39:51.558Z,20.4
2022-12-02T03:40:53.305Z,20.4
2022-12-02T03:41:55.058Z,20.4
2022-12-02T03:42:56.757Z,20.4
2022-12-02T03:43:58.643Z,20.4
2022-12-02T03:45:00.395Z,20.4
2022-12-02T03:46:02.265Z,20.4
2022-12-02T03:47:04.265Z,20.4
2022-12-02T03:48:06.152Z,20.4
2022-12-02T03:49:07.891Z,20.4
2022-12-02T03:50:09.636Z,20.4
2022-12-02T03:51:11.232Z,20.4
2022-12-02T03:52:12.917Z,20.4
2022-12-02T03:53:14.788Z,20.4
2022-12-02T03:54:16.504Z,20.4
2022-12-02T03:55:18.386Z,20.4
2022-12-02T03:56:20.230Z,20.4
2022-12-02T03:57:21.984Z,20.4
2022-12-02T03:58:23.821Z,20.4
2022-12-02T03:59:25.469Z,20.4
2022-12-02T04:00:27.292Z,20.4
2022-12-02T04:01:29.353Z,20.4
2022-12-02T04:02:31.466Z,20.4
2022-12-02T04:03:33.385Z,20.4
2022-12-02T04:04:34.962Z,20.4
2022-12-02T04:05:36.794Z,20.4
2022-12-02T04:06:38.350Z,20.4
2022-12-02T04:07:40.096Z,20.4
2022-12-02T04:08:42.300Z,20.4
2022-12-02T04:09:44.083Z,20.4
2022-12-02T04:10:45.690Z,20.4
2022-12-02T04:11:47.211Z,20.5
2022-12-02T04:12:49.006Z,20.4
2022-12-02T04:13:50.620Z,20.4
2022-12-02T04:14:53.145Z,20.4
2022-12-02T04:15:55.962Z,20.4
2022-12-02T04:16:58.083Z,20.4
2022-12-02T04:18:04.103Z,20.4
2022-12-02T04:19:05.951Z,20.4
2022-12-02T04:20:07.692Z,20.4
2022-12-02T04:21:09.409Z,20.4
2022-12-02T04:22:11.287Z,20.4
2022-12-02T04:23:13.019Z,20.4
2022-12-02T04:24:14.852Z,20.4
2022-12-02T04:25:16.642Z,20.4
2022-12-02T04:26:18.357Z,20.4
2022-12-02T04:27:20.133Z,20.4
2022-12-02T04:28:21.822Z,20.4
2022-12-02T04:29:23.640Z,20.4
2022-12-02T04:30:25.478Z,20.4
2022-12-02T04:31:27.591Z,20.4
2022-12-02T04:32:29.649Z,20.4
2022-12-02T04:33:31.447Z,20.4
2022-12-02T04:34:33.283Z,20.5
2022-12-02T04:35:35.037Z,20.4
2022-12-02T04:36:36.883Z,20.4
2022-12-02T04:37:38.734Z,20.4
2022-12-02T04:38:40.375Z,20.4
2022-12-02T04:39:42.126Z,20.4
2022-12-02T04:40:43.869Z,20.5
2022-12-02T04:41:48.198Z,20.5
2022-12-02T04:42:49.905Z,20.6
2022-12-02T04:43:51.654Z,20.6
2022-12-02T04:44:53.918Z,20.7
2022-12-02T04:45:55.691Z,20.7
2022-12-02T04:46:57.675Z,20.7
2022-12-02T04:47:59.668Z,20.8
2022-12-02T04:49:01.652Z,20.9
2022-12-02T04:50:03.399Z,20.9
2022-12-02T04:51:05.137Z,21
2022-12-02T04:52:06.828Z,21
2022-12-02T04:53:08.632Z,21
2022-12-02T04:54:10.276Z,20.9
2022-12-02T04:55:12.129Z,20.9
2022-12-02T04:56:13.774Z,20.9
2022-12-02T04:57:15.530Z,20.8
2022-12-02T04:58:17.268Z,20.9
2022-12-02T04:59:18.854Z,20.9
2022-12-02T05:00:20.670Z,20.8
2022-12-02T05:01:22.403Z,20.8
2022-12-02T05:02:24.209Z,20.9
2022-12-02T05:03:26.255Z,20.9
2022-12-02T05:04:28.195Z,20.8
2022-12-02T05:05:30.218Z,20.8
2022-12-02T05:06:31.931Z,20.9
2022-12-02T05:07:33.936Z,20.8
2022-12-02T05:08:35.827Z,20.8
2022-12-02T05:09:37.619Z,20.9
2022-12-02T05:10:39.372Z,20.9
2022-12-02T05:11:41.188Z,20.9
2022-12-02T05:12:42.872Z,20.9
2022-12-02T05:13:44.506Z,20.9
2022-12-02T05:14:46.264Z,21
2022-12-02T05:15:48.141Z,21
2022-12-02T05:16:50.110Z,21.1
2022-12-02T05:17:51.755Z,21.1
2022-12-02T05:18:53.555Z,21
2022-12-02T05:19:55.511Z,21
2022-12-02T05:20:57.232Z,21.1
2022-12-02T05:21:58.974Z,21.2
2022-12-02T05:23:00.746Z,21.2
2022-12-02T05:24:02.491Z,21.3
2022-12-02T05:25:04.238Z,21.3
2022-12-02T05:26:06.099Z,21.3
2022-12-02T05:27:07.937Z,21.3
2022-12-02T05:28:09.539Z,21.3
2022-12-02T05:29:11.333Z,21.3
2022-12-02T05:30:13.079Z,21.2
2022-12-02T05:31:15.153Z,21.3
2022-12-02T05:32:17.138Z,21.3
2022-12-02T05:33:18.836Z,21.3
2022-12-02T05:34:20.612Z,21.3
2022-12-02T05:35:22.536Z,21.4
2022-12-02T05:36:24.383Z,21.5
2022-12-02T05:37:26.131Z,21.7
2022-12-02T05:38:27.888Z,21.6
2022-12-02T05:39:29.627Z,21.7
2022-12-02T05:40:31.377Z,21.7
2022-12-02T05:41:33.132Z,21.7
2022-12-02T05:42:34.982Z,21.7
2022-12-02T05:43:36.832Z,21.7
2022-12-02T05:44:40.218Z,21.8
2022-12-02T05:45:42.068Z,21.7
2022-12-02T05:46:44.042Z,21.6
2022-12-02T05:47:46.075Z,21.6
2022-12-02T05:48:47.859Z,21.7
2022-12-02T05:49:49.709Z,21.7
2022-12-02T05:50:51.549Z,21.6
2022-12-02T05:51:57.263Z,21.8
2022-12-02T05:52:58.991Z,21.7
2022-12-02T05:54:00.709Z,21.6
2022-12-02T05:55:02.352Z,21.5
2022-12-02T05:56:04.148Z,21.4
2022-12-02T05:57:05.905Z,21.4
2022-12-02T05:58:07.682Z,21.4
2022-12-02T05:59:09.495Z,21.4
2022-12-02T06:00:11.241Z,21.4
2022-12-02T06:01:13.093Z,21.4
2022-12-02T06:02:15.000Z,21.3
2022-12-02T06:03:17.606Z,21.3
2022-12-02T06:04:19.679Z,21.3
2022-12-02T06:05:21.442Z,21.2
2022-12-02T06:06:23.239Z,21.2
2022-12-02T06:07:25.195Z,21.3
2022-12-02T06:08:27.209Z,21.2
2022-12-02T06:09:28.975Z,21.2
2022-12-02T06:10:30.669Z,21.2
2022-12-02T06:11:32.518Z,21.2
2022-12-02T06:12:34.878Z,21.2
2022-12-02T06:13:36.663Z,21.2
2022-12-02T06:14:38.376Z,21.2
2022-12-02T06:15:40.059Z,21.1
2022-12-02T06:16:42.015Z,21.2
2022-12-02T06:17:44.029Z,21.2
2022-12-02T06:18:45.775Z,21.1
2022-12-02T06:19:47.515Z,21.1
2022-12-02T06:20:49.196Z,21.1
2022-12-02T06:21:51.007Z,21.1
2022-12-02T06:22:52.758Z,21.2
2022-12-02T06:23:54.502Z,21.1
2022-12-02T06:24:56.167Z,21.2
2022-12-02T06:25:57.881Z,21.2
2022-12-02T06:26:59.653Z,21.2
2022-12-02T06:28:08.999Z,21.2
2022-12-02T06:29:12.384Z,21.1
2022-12-02T06:30:14.106Z,21.1
2022-12-02T06:31:16.091Z,21.1
2022-12-02T06:32:18.109Z,21.1
2022-12-02T06:33:23.050Z,21.1
2022-12-02T06:34:24.890Z,21.1
2022-12-02T06:35:26.588Z,21.1
2022-12-02T06:36:28.308Z,21.1
2022-12-02T06:37:30.228Z,21.1
2022-12-02T06:38:31.845Z,21.1
2022-12-02T06:39:33.679Z,21.1
2022-12-02T06:40:35.447Z,21.1
2022-12-02T06:41:37.117Z,21.1
2022-12-02T06:42:38.972Z,21.1
2022-12-02T06:43:40.815Z,21.1
2022-12-02T06:44:42.564Z,21.1
2022-12-02T06:45:44.334Z,21.1
2022-12-02T06:46:46.113Z,21.1
2022-12-02T06:47:47.919Z,21.1
2022-12-02T06:48:49.655Z,21.1
2022-12-02T06:49:51.417Z,21.1
2022-12-02T06:50:53.235Z,21.1
2022-12-02T06:51:55.029Z,21.1
2022-12-02T06:52:56.974Z,21
2022-12-02T06:53:58.809Z,21
2022-12-02T06:55:00.495Z,21
2022-12-02T06:56:02.407Z,21.1
2022-12-02T06:57:04.055Z,21.1
2022-12-02T06:58:05.740Z,21
2022-12-02T06:59:07.378Z,20.9
2022-12-02T07:00:09.168Z,21
2022-12-02T07:01:11.210Z,21
2022-12-02T07:02:13.461Z,21
2022-12-02T07:03:15.579Z,21
2022-12-02T07:04:17.528Z,21
2022-12-02T07:05:19.225Z,21
2022-12-02T07:06:21.011Z,21
2022-12-02T07:07:23.073Z,21
2022-12-02T07:08:25.330Z,21
2022-12-02T07:09:27.067Z,21
2022-12-02T07:10:28.825Z,20.9
2022-12-02T07:11:30.480Z,20.9
2022-12-02T07:12:32.216Z,20.9
2022-12-02T07:13:33.925Z,20.9
2022-12-02T07:14:35.570Z,20.9
2022-12-02T07:15:37.460Z,20.9
2022-12-02T07:16:39.435Z,20.9
2022-12-02T07:17:41.368Z,20.9
2022-12-02T07:18:43.115Z,20.9
2022-12-02T07:19:44.962Z,20.9
2022-12-02T07:20:46.697Z,20.9
2022-12-02T07:21:54.052Z,21
2022-12-02T07:22:56.061Z,20.9
2022-12-02T07:23:57.884Z,20.9
2022-12-02T07:24:59.575Z,20.9
2022-12-02T07:26:01.386Z,20.9
2022-12-02T07:27:06.108Z,20.9
2022-12-02T07:28:07.842Z,20.9
2022-12-02T07:29:16.362Z,20.9
2022-12-02T07:30:18.158Z,20.9
2022-12-02T07:31:20.072Z,20.9
2022-12-02T07:32:22.206Z,20.9
2022-12-02T07:33:24.013Z,20.8
2022-12-02T07:34:34.308Z,20.9
2022-12-02T07:35:36.159Z,20.9
2022-12-02T07:36:37.841Z,20.9
2022-12-02T07:37:39.657Z,20.9
2022-12-02T07:39:11.540Z,20.9
2022-12-02T07:40:13.353Z,20.9
2022-12-02T07:41:15.004Z,20.9
2022-12-02T07:42:16.614Z,20.8
2022-12-02T07:43:18.463Z,20.8
2022-12-02T07:44:20.445Z,20.8
2022-12-02T07:45:22.290Z,20.8
2022-12-02T07:46:24.214Z,20.8
2022-12-02T07:47:26.300Z,20.8
2022-12-02T07:48:28.059Z,20.8
2022-12-02T07:49:29.803Z,20.8
2022-12-02T07:50:31.660Z,20.9
2022-12-02T07:51:33.282Z,20.9
2022-12-02T07:52:35.057Z,20.9
2022-12-02T07:53:36.896Z,20.8
2022-12-02T07:54:38.653Z,20.9
2022-12-02T07:55:40.602Z,20.9
2022-12-02T07:56:42.344Z,20.8
2022-12-02T07:57:44.087Z,20.8
2022-12-02T07:59:13.257Z,20.8
2022-12-02T08:00:16.035Z,20.8
2022-12-02T08:01:20.367Z,20.8
2022-12-02T08:02:22.317Z,20.8
2022-12-02T08:03:24.052Z,20.8
2022-12-02T08:04:25.862Z,20.8
2022-12-02T08:05:27.857Z,20.9
2022-12-02T08:06:38.935Z,20.8
2022-12-02T08:07:42.278Z,20.7
2022-12-02T08:08:44.241Z,20.7
2022-12-02T08:09:46.116Z,20.7
2022-12-02T08:10:48.063Z,20.7
2022-12-02T08:11:49.812Z,20.7
2022-12-02T08:12:51.525Z,20.7
2022-12-02T08:13:53.408Z,20.7
2022-12-02T08:14:54.966Z,20.7
2022-12-02T08:15:56.884Z,20.7
2022-12-02T08:16:58.684Z,20.7
2022-12-02T08:18:00.552Z,20.6
2022-12-02T08:19:02.244Z,20.6
2022-12-02T08:20:04.113Z,20.6
2022-12-02T08:21:09.739Z,20.6
2022-12-02T08:22:11.691Z,20.6
2022-12-02T08:23:13.342Z,20.6
2022-12-02T08:24:15.188Z,20.6
2022-12-02T08:25:16.941Z,20.6
2022-12-02T08:26:18.792Z,20.6
2022-12-02T08:27:20.473Z,20.6
2022-12-02T08:28:22.387Z,20.7
2022-12-02T08:29:24.128Z,20.7
2022-12-02T08:30:25.977Z,20.6
2022-12-02T08:31:28.001Z,20.6
2022-12-02T08:32:29.984Z,20.6
2022-12-02T08:33:31.711Z,20.6
2022-12-02T08:34:33.463Z,20.6
2022-12-02T08:35:35.266Z,20.6
2022-12-02T08:36:37.005Z,20.6
2022-12-02T08:37:38.731Z,20.6
2022-12-02T08:38:40.469Z,20.6
2022-12-02T08:39:42.097Z,20.6
2022-12-02T08:40:43.999Z,20.6
2022-12-02T08:41:46.026Z,20.6
2022-12-02T08:42:47.767Z,20.5
2022-12-02T08:43:49.421Z,20.5
2022-12-02T08:44:51.926Z,20.5
2022-12-02T08:45:54.707Z,20.5
2022-12-02T08:46:56.735Z,20.6
2022-12-02T08:47:58.560Z,20.6
2022-12-02T08:49:00.376Z,20.6
2022-12-02T08:50:02.076Z,20.6
2022-12-02T08:51:03.704Z,20.6
2022-12-02T08:52:05.351Z,20.6
2022-12-02T08:53:07.033Z,20.6
2022-12-02T08:54:08.843Z,20.5
2022-12-02T08:55:10.518Z,20.6
2022-12-02T08:56:12.277Z,20.5
2022-12-02T08:57:14.089Z,20.5
2022-12-02T08:58:15.935Z,20.5
2022-12-02T08:59:17.686Z,20.6
2022-12-02T09:00:19.436Z,20.5
2022-12-02T09:01:21.381Z,20.5
2022-12-02T09:02:23.737Z,20.6
2022-12-02T09:03:25.696Z,20.6
2022-12-02T09:04:27.640Z,20.5
2022-12-02T09:05:29.341Z,20.5
2022-12-02T09:06:36.684Z,20.5
2022-12-02T09:07:38.716Z,20.6
2022-12-02T09:08:43.597Z,20.5
2022-12-02T09:09:45.651Z,20.5
2022-12-02T09:10:47.485Z,20.5
2022-12-02T09:11:49.523Z,20.5
2022-12-02T09:12:51.249Z,20.5
2022-12-02T09:13:52.936Z,20.5
2022-12-02T09:14:54.818Z,20.4
2022-12-02T09:15:56.648Z,20.6
2022-12-02T09:16:58.755Z,20.7
2022-12-02T09:18:00.498Z,20.6
2022-12-02T09:19:02.107Z,20.6
2022-12-02T09:20:03.897Z,20.5
2022-12-02T09:21:05.740Z,20.5
2022-12-02T09:22:07.604Z,20.6
2022-12-02T09:23:09.347Z,20.6
2022-12-02T09:24:11.289Z,20.5
2022-12-02T09:25:12.913Z,20.6
2022-12-02T09:26:14.695Z,20.6
2022-12-02T09:27:16.627Z,20.6
2022-12-02T09:28:18.491Z,20.5
2022-12-02T09:29:20.287Z,20.5
2022-12-02T09:30:22.177Z,20.5
2022-12-02T09:31:24.484Z,20.6
2022-12-02T09:32:26.505Z,20.6
2022-12-02T09:33:34.192Z,20.6
2022-12-02T09:34:35.861Z,20.6
2022-12-02T09:35:37.903Z,20.6
2022-12-02T09:36:40.667Z,20.5
2022-12-02T09:37:42.823Z,20.5
2022-12-02T09:38:44.879Z,20.6
2022-12-02T09:39:46.508Z,20.6
2022-12-02T09:40:48.376Z,20.7
2022-12-02T09:41:50.219Z,20.6
2022-12-02T09:42:51.996Z,20.5
2022-12-02T09:43:54.027Z,20.6
2022-12-02T09:44:55.773Z,20.6
2022-12-02T09:45:57.413Z,20.5
2022-12-02T09:46:59.215Z,20.4
2022-12-02T09:48:01.426Z,20.5
2022-12-02T09:49:03.375Z,20.5
2022-12-02T09:50:08.099Z,20.5
2022-12-02T09:51:09.716Z,20.4
2022-12-02T09:52:11.481Z,20.5
2022-12-02T09:53:13.095Z,20.5
2022-12-02T09:54:14.978Z,20.4
2022-12-02T09:55:16.839Z,20.3
2022-12-02T09:56:18.891Z,20.4
2022-12-02T09:57:20.655Z,20.3
2022-12-02T09:58:22.378Z,20.4
2022-12-02T09:59:24.233Z,20.4
2022-12-02T10:00:26.085Z,20.4
2022-12-02T10:01:28.055Z,20.4
2022-12-02T10:02:30.328Z,20.4
2022-12-02T10:03:32.282Z,20.4
2022-12-02T10:04:34.180Z,20.4
2022-12-02T10:05:36.055Z,20.4
2022-12-02T10:06:37.899Z,20.4
2022-12-02T10:07:39.670Z,20.4
2022-12-02T10:08:41.642Z,20.3
2022-12-02T10:09:43.338Z,20.3
2022-12-02T10:10:45.017Z,20.4
2022-12-02T10:11:46.834Z,20.4
2022-12-02T10:12:48.684Z,20.4
2022-12-02T10:13:50.353Z,20.4
2022-12-02T10:14:53.049Z,20.4
2022-12-02T10:15:55.926Z,20.3
2022-12-02T10:16:57.974Z,20.3
2022-12-02T10:17:59.685Z,20.3
2022-12-02T10:19:01.326Z,20.3
2022-12-02T10:20:03.181Z,20.3
2022-12-02T10:21:04.966Z,20.3
2022-12-02T10:22:06.776Z,20.3
2022-12-02T10:23:08.521Z,20.4
2022-12-02T10:24:10.368Z,20.4
2022-12-02T10:25:11.980Z,20.3
2022-12-02T10:26:13.646Z,20.3
2022-12-02T10:27:15.522Z,20.3
2022-12-02T10:28:17.469Z,20.4
2022-12-02T10:29:19.423Z,20.5
2022-12-02T10:30:21.278Z,20.4
2022-12-02T10:31:23.296Z,20.4
2022-12-02T10:32:25.276Z,20.4
2022-12-02T10:33:27.124Z,20.4
2022-12-02T10:34:28.974Z,20.3
2022-12-02T10:35:30.666Z,20.4
2022-12-02T10:36:32.371Z,20.4
2022-12-02T10:37:34.214Z,20.5
2022-12-02T10:38:35.776Z,20.5
2022-12-02T10:39:38.772Z,20.5
2022-12-02T10:40:40.480Z,20.4
2022-12-02T10:41:42.226Z,20.3
2022-12-02T10:42:43.972Z,20.3
2022-12-02T10:43:45.586Z,20.3
2022-12-02T10:44:47.402Z,20.3
2022-12-02T10:45:49.214Z,20.3
2022-12-02T10:46:51.137Z,20.3
2022-12-02T10:47:53.223Z,20.3
2022-12-02T10:48:54.875Z,20.3
2022-12-02T10:49:56.719Z,20.3
2022-12-02T10:50:58.359Z,20.3
2022-12-02T10:52:00.218Z,20.3
2022-12-02T10:53:02.069Z,20.2
2022-12-02T10:54:03.822Z,20.3
2022-12-02T10:55:05.572Z,20.2
2022-12-02T10:56:07.224Z,20.2
2022-12-02T10:57:09.065Z,20.3
2022-12-02T10:58:10.915Z,20.3
2022-12-02T10:59:12.762Z,20.3
2022-12-02T11:00:14.544Z,20.3
2022-12-02T11:01:16.499Z,20.3
2022-12-02T11:02:18.825Z,20.2
2022-12-02T11:03:20.777Z,20.3
2022-12-02T11:04:22.618Z,20.3
2022-12-02T11:05:24.261Z,20.3
2022-12-02T11:06:26.222Z,20.3
2022-12-02T11:07:28.095Z,20.2
2022-12-02T11:08:30.121Z,20.2
2022-12-02T11:09:41.521Z,20.2
2022-12-02T11:10:43.672Z,20.5
2022-12-02T11:11:45.502Z,20.5
2022-12-02T11:12:47.199Z,20.5
2022-12-02T11:13:48.843Z,20.4
2022-12-02T11:14:51.027Z,20.6
2022-12-02T11:15:53.951Z,20.8
2022-12-02T11:16:56.241Z,20.7
2022-12-02T11:17:58.152Z,20.6
2022-12-02T11:18:59.883Z,20.7
2022-12-02T11:20:01.425Z,20.6
2022-12-02T11:21:03.288Z,20.5
2022-12-02T11:22:05.023Z,20.4
2022-12-02T11:23:06.882Z,20.3
2022-12-02T11:24:08.622Z,20.3
2022-12-02T11:25:10.403Z,20.4
2022-12-02T11:26:15.096Z,20.3
2022-12-02T11:27:19.105Z,20.3
2022-12-02T11:28:20.924Z,20.3
2022-12-02T11:29:22.804Z,20.3
2022-12-02T11:30:24.591Z,20.3
2022-12-02T11:31:26.608Z,20.5
2022-12-02T11:32:28.661Z,20.5
2022-12-02T11:33:30.406Z,20.5
2022-12-02T11:35:16.155Z,20.4
2022-12-02T11:36:21.408Z,20.5
2022-12-02T11:37:23.262Z,20.3
2022-12-02T11:38:25.059Z,20.3
2022-12-02T11:39:26.720Z,20.2
2022-12-02T11:40:28.597Z,20.2
2022-12-02T11:41:30.353Z,20.2
2022-12-02T11:42:32.049Z,20.3
2022-12-02T11:43:33.735Z,20.3
2022-12-02T11:44:35.493Z,20.3
2022-12-02T11:45:37.366Z,20.3
2022-12-02T11:46:39.394Z,20.3
2022-12-02T11:47:41.238Z,20.3
2022-12-02T11:48:43.051Z,20.3
2022-12-02T11:49:44.845Z,20.2
2022-12-02T11:50:46.690Z,20.2
2022-12-02T11:51:48.436Z,20.2
2022-12-02T11:52:50.096Z,20.3
2022-12-02T11:53:51.909Z,20.2
2022-12-02T11:54:54.343Z,20.2
2022-12-02T11:55:57.070Z,20.2
2022-12-02T11:56:58.680Z,20.2
2022-12-02T11:58:00.677Z,20.2
2022-12-02T11:59:02.412Z,20.2
2022-12-02T12:00:04.159Z,20.2
2022-12-02T12:01:05.851Z,20.3
2022-12-02T12:02:07.853Z,20.3
2022-12-02T12:03:10.135Z,20.2
2022-12-02T12:04:12.218Z,20.1
2022-12-02T12:05:14.034Z,20.1
2022-12-02T12:06:15.749Z,20.1
2022-12-02T12:07:17.516Z,20.2
2022-12-02T12:08:19.321Z,20.1
2022-12-02T12:09:21.326Z,20.1
2022-12-02T12:10:23.282Z,20
2022-12-02T12:11:25.132Z,20.1
2022-12-02T12:12:26.984Z,20.1
2022-12-02T12:13:36.989Z,20.1
2022-12-02T12:14:39.081Z,20.2
2022-12-02T12:15:40.820Z,20.2
2022-12-02T12:16:42.939Z,20.1
2022-12-02T12:17:44.973Z,20.2
2022-12-02T12:18:47.366Z,20.1
2022-12-02T12:19:49.140Z,20.2
2022-12-02T12:20:50.848Z,20.3
2022-12-02T12:21:52.739Z,20.3
2022-12-02T12:22:54.441Z,20.2
2022-12-02T12:23:56.282Z,20.3
2022-12-02T12:24:57.978Z,20.3
2022-12-02T12:25:59.737Z,20.2
2022-12-02T12:27:01.406Z,20.2
2022-12-02T12:28:03.177Z,20.2
2022-12-02T12:29:04.991Z,20.3
2022-12-02T12:30:06.833Z,20.2
2022-12-02T12:31:08.795Z,20.4
2022-12-02T12:32:10.674Z,20.3
2022-12-02T12:33:12.498Z,20.3
2022-12-02T12:34:14.323Z,20.4
2022-12-02T12:35:16.074Z,20.3
2022-12-02T12:36:17.696Z,20.3
2022-12-02T12:37:19.514Z,20.4
2022-12-02T12:38:28.818Z,20.4
2022-12-02T12:39:32.896Z,20.3
2022-12-02T12:40:34.749Z,20.2
2022-12-02T12:42:01.265Z,20.3
2022-12-02T12:43:04.352Z,20.3
2022-12-02T12:44:06.109Z,20.3
2022-12-02T12:45:07.861Z,20.4
2022-12-02T12:46:09.873Z,20.3
2022-12-02T12:47:11.953Z,20.5
2022-12-02T12:48:13.599Z,20.6
2022-12-02T12:49:15.495Z,20.7
2022-12-02T12:50:17.705Z,20.8
2022-12-02T12:51:19.475Z,20.8
2022-12-02T12:52:21.087Z,20.8
2022-12-02T12:53:22.848Z,20.9
2022-12-02T12:54:24.606Z,20.9
2022-12-02T12:55:26.353Z,20.9
2022-12-02T12:56:28.209Z,20.9
2022-12-02T12:57:29.927Z,20.9
2022-12-02T12:58:31.556Z,20.9
2022-12-02T12:59:33.449Z,20.8
2022-12-02T13:00:35.195Z,20.8
2022-12-02T13:01:37.061Z,20.8
2022-12-02T13:02:39.074Z,20.8
2022-12-02T13:03:41.110Z,20.7
2022-12-02T13:04:42.963Z,20.7
2022-12-02T13:05:44.971Z,20.7
2022-12-02T13:06:46.803Z,20.7
2022-12-02T13:07:48.996Z,20.7
2022-12-02T13:08:50.970Z,20.7
2022-12-02T13:09:53.202Z,20.6
2022-12-02T13:10:55.642Z,20.6
2022-12-02T13:11:57.615Z,20.6
2022-12-02T13:12:59.434Z,20.6
2022-12-02T13:14:01.079Z,20.6
2022-12-02T13:15:02.833Z,20.6
2022-12-02T13:16:04.675Z,20.6
2022-12-02T13:17:06.678Z,20.5
2022-12-02T13:18:08.631Z,20.5
2022-12-02T13:19:10.288Z,20.6
2022-12-02T13:20:11.962Z,20.6
2022-12-02T13:21:13.936Z,20.6
2022-12-02T13:22:15.674Z,20.5
2022-12-02T13:23:17.211Z,20.6
2022-12-02T13:24:19.035Z,20.6
2022-12-02T13:25:20.821Z,20.5
2022-12-02T13:26:22.569Z,20.6
2022-12-02T13:27:24.822Z,20.7
2022-12-02T13:28:26.570Z,20.5
2022-12-02T13:29:31.217Z,20.5
2022-12-02T13:30:40.706Z,20.5
2022-12-02T13:31:45.164Z,20.6
2022-12-02T13:32:47.180Z,20.6
2022-12-02T13:33:48.802Z,20.5
2022-12-02T13:34:51.516Z,20.6
2022-12-02T13:35:54.548Z,20.6
2022-12-02T13:36:56.623Z,20.6
2022-12-02T13:37:58.587Z,20.7
2022-12-02T13:39:06.869Z,20.6
2022-12-02T13:40:08.710Z,20.6
2022-12-02T13:41:10.389Z,20.7
2022-12-02T13:42:12.336Z,20.7
2022-12-02T13:43:14.674Z,20.7
2022-12-02T13:44:16.344Z,20.7
2022-12-02T13:45:17.957Z,20.7
2022-12-02T13:46:19.801Z,20.7
2022-12-02T13:47:21.917Z,20.6
2022-12-02T13:48:23.667Z,20.7
2022-12-02T13:49:25.381Z,20.5